Time;durP1;ratioP1;P1;durP2;ratioP2;P2;SDS_P1;SDS_P2;PMS_P1;PMS_P2;Temp;Humidity;BMP_temperature;BMP_pressure;BME280_temperature;BME280_humidity;BME280_pressure;Samples;Min_cycle;Max_cycle;Signal;HPM_P1;HPM_P2
2023/01/05 00:02:23;;;;;;;10.23;2.80;;;14.40;99.90;;;;;;5092672;28;20624;-75
2023/01/05 00:04:49;;;;;;;12.07;2.33;;;14.40;99.90;;;;;;5091765;28;20183;-76
2023/01/05 00:07:15;;;;;;;13.80;2.50;;;14.40;99.90;;;;;;5091630;28;20167;-75
2023/01/05 00:09:40;;;;;;;8.03;2.47;;;14.40;99.90;;;;;;5092108;28;20282;-75
2023/01/05 00:22:29;;;;;;;8.50;2.03;;;14.40;99.90;;;;;;5092977;28;20573;-77
2023/01/05 00:23:20;;;;;;;8.83;2.20;;;14.40;99.90;;;;;;5076047;28;20636;-75
2023/01/05 00:25:45;;;;;;;11.37;3.17;;;14.40;99.90;;;;;;5098533;28;20612;-75
2023/01/05 00:28:11;;;;;;;8.23;1.83;;;14.40;99.90;;;;;;5076823;28;20615;-75
2023/01/05 00:30:42;;;;;;;12.80;1.90;;;14.40;99.90;;;;;;5092084;28;21062;-75
2023/01/05 00:33:13;;;;;;;7.30;1.93;;;14.40;99.90;;;;;;5091619;28;20799;-75
2023/01/05 00:35:39;;;;;;;9.23;1.70;;;14.40;99.90;;;;;;5091272;28;20592;-75
2023/01/05 00:38:06;;;;;;;11.87;2.20;;;14.30;99.90;;;;;;5074583;28;20950;-75
2023/01/05 00:40:33;;;;;;;12.20;2.40;;;14.30;99.90;;;;;;5090946;28;21205;-75
2023/01/05 00:42:59;;;;;;;9.00;1.50;;;14.30;99.90;;;;;;5090074;28;20621;-75
2023/01/05 00:45:25;;;;;;;7.13;1.80;;;14.30;99.90;;;;;;5073872;28;20584;-77
2023/01/05 00:47:54;;;;;;;8.40;1.57;;;14.30;99.90;;;;;;5073666;28;20618;-75
2023/01/05 00:50:21;;;;;;;8.60;1.60;;;14.30;99.90;;;;;;5073735;28;21006;-76
2023/01/05 00:52:47;;;;;;;12.40;2.30;;;14.30;99.90;;;;;;5057258;28;20699;-76
2023/01/05 00:55:14;;;;;;;9.10;2.93;;;14.30;99.90;;;;;;5090558;28;20577;-77
2023/01/05 00:57:40;;;;;;;6.97;2.10;;;14.30;99.90;;;;;;5074118;28;20602;-76
2023/01/05 01:00:12;;;;;;;11.30;2.30;;;14.30;99.90;;;;;;5090686;28;20782;-76
2023/01/05 01:02:38;;;;;;;7.13;1.80;;;14.30;99.90;;;;;;5079106;28;20640;-75
2023/01/05 01:05:06;;;;;;;11.70;2.77;;;14.20;99.90;;;;;;5075592;28;21083;-75
2023/01/05 01:07:31;;;;;;;7.97;2.13;;;14.20;99.90;;;;;;5090118;28;20593;-77
2023/01/05 01:09:57;;;;;;;10.40;2.03;;;14.20;99.90;;;;;;5073838;28;20647;-77
2023/01/05 01:12:23;;;;;;;12.00;3.00;;;14.20;99.90;;;;;;5090258;28;20176;-77
2023/01/05 01:14:50;;;;;;;9.70;2.10;;;14.20;99.90;;;;;;5090282;28;20600;-75
2023/01/05 01:17:16;;;;;;;8.30;2.07;;;14.20;99.90;;;;;;5073233;28;21131;-75
2023/01/05 01:19:44;;;;;;;12.00;2.20;;;14.20;99.90;;;;;;5090033;28;20605;-75
2023/01/05 01:22:10;;;;;;;13.07;1.60;;;14.20;99.90;;;;;;5089666;28;20620;-75
2023/01/05 01:24:38;;;;;;;6.80;3.00;;;14.20;99.90;;;;;;5090143;28;20955;-75
2023/01/05 01:27:04;;;;;;;6.23;1.83;;;14.20;99.90;;;;;;5073247;28;21170;-75
2023/01/05 01:29:30;;;;;;;13.23;2.90;;;14.20;99.90;;;;;;5056821;28;20625;-75
2023/01/05 01:31:56;;;;;;;9.73;2.00;;;14.20;99.90;;;;;;5073003;28;20166;-75
2023/01/05 01:34:22;;;;;;;9.53;1.63;;;14.20;99.90;;;;;;5090071;28;20910;-75
2023/01/05 01:36:48;;;;;;;8.60;1.53;;;14.20;99.90;;;;;;5091331;28;20167;-75
2023/01/05 01:39:17;;;;;;;14.33;2.23;;;14.20;99.90;;;;;;5074540;28;20625;-75
2023/01/05 01:41:48;;;;;;;11.43;2.20;;;14.20;99.90;;;;;;5076715;28;20686;-75
2023/01/05 01:44:51;;;;;;;7.87;2.50;;;14.20;99.90;;;;;;5089545;28;20809;-75
2023/01/05 01:47:27;;;;;;;9.80;1.60;;;14.20;99.90;;;;;;5073225;28;20577;-75
2023/01/05 01:49:54;;;;;;;8.50;2.07;;;14.20;99.90;;;;;;5055955;28;20633;-75
2023/01/05 01:52:22;;;;;;;11.03;2.50;;;14.20;99.90;;;;;;5072825;28;20978;-75
2023/01/05 01:54:50;;;;;;;12.50;3.23;;;14.20;99.90;;;;;;5072255;28;20585;-75
2023/01/05 01:57:16;;;;;;;7.67;1.83;;;14.10;99.90;;;;;;5072758;28;20627;-75
2023/01/05 01:59:42;;;;;;;8.67;2.30;;;14.10;99.90;;;;;;5072533;28;21012;-76
2023/01/05 02:02:09;;;;;;;10.60;2.87;;;14.10;99.90;;;;;;5083042;28;21172;-76
2023/01/05 02:04:38;;;;;;;10.77;2.10;;;14.10;99.90;;;;;;5070188;28;21010;-75
2023/01/05 02:07:06;;;;;;;14.97;4.17;;;14.10;99.90;;;;;;5069288;28;21027;-75
2023/01/05 02:09:33;;;;;;;9.47;2.17;;;14.10;99.90;;;;;;5052429;28;21438;-75
2023/01/05 02:12:23;;;;;;;13.90;3.40;;;14.10;99.90;;;;;;5069140;28;21250;-75
2023/01/05 02:15:26;;;;;;;14.83;2.20;;;14.10;99.90;;;;;;5068759;28;20628;-75
2023/01/05 02:18:23;;;;;;;12.07;3.10;;;14.10;99.90;;;;;;5035746;28;21437;-75
2023/01/05 02:21:15;;;;;;;7.60;2.10;;;14.00;99.90;;;;;;5068629;28;20637;-75
2023/01/05 02:24:09;;;;;;;10.73;2.03;;;14.00;99.90;;;;;;5052029;28;21194;-76
2023/01/05 02:27:14;;;;;;;10.53;2.23;;;14.00;99.90;;;;;;5051892;28;20575;-76
2023/01/05 02:30:14;;;;;;;8.83;2.90;;;14.00;99.90;;;;;;5068916;28;20613;-76
2023/01/05 02:32:55;;;;;;;18.07;3.10;;;14.00;99.90;;;;;;5051835;28;20570;-76
2023/01/05 02:35:37;;;;;;;17.37;2.80;;;14.00;99.90;;;;;;5052153;28;21102;-76
2023/01/05 02:38:13;;;;;;;9.73;2.17;;;14.00;99.90;;;;;;5068875;28;20617;-75
2023/01/05 02:40:46;;;;;;;10.97;2.20;;;13.90;99.90;;;;;;5052021;28;20602;-75
2023/01/05 02:43:14;;;;;;;13.40;3.10;;;13.90;99.90;;;;;;5069210;28;20965;-75
2023/01/05 02:45:39;;;;;;;11.23;3.33;;;13.90;99.90;;;;;;5051689;28;20953;-75
2023/01/05 02:48:05;;;;;;;13.03;1.83;;;13.80;99.90;;;;;;5068125;28;20574;-75
2023/01/05 02:50:46;;;;;;;13.03;3.10;;;13.80;99.90;;;;;;5068290;28;20649;-76
2023/01/05 02:53:21;;;;;;;13.47;2.70;;;13.80;99.90;;;;;;5051466;28;20199;-76
2023/01/05 02:56:16;;;;;;;9.37;2.47;;;13.70;99.90;;;;;;5052554;28;20624;-75
2023/01/05 02:59:00;;;;;;;6.03;2.13;;;13.60;99.90;;;;;;5069174;28;20676;-76
2023/01/05 03:01:38;;;;;;;11.60;3.13;;;13.60;99.90;;;;;;5051109;28;21192;-75
2023/01/05 03:04:20;;;;;;;10.83;2.73;;;13.60;99.90;;;;;;5034565;28;20641;-75
2023/01/05 03:06:55;;;;;;;14.17;2.90;;;13.50;99.90;;;;;;5050811;28;20597;-75
2023/01/05 03:09:26;;;;;;;9.60;1.95;;;13.50;99.90;;;;;;5051341;28;20717;-75
2023/01/05 03:15:13;;;;;;;14.43;2.53;;;13.60;99.90;;;;;;5067901;28;20578;-75
2023/01/05 03:17:43;;;;;;;10.83;1.97;;;13.50;99.90;;;;;;5051472;28;20669;-75
2023/01/05 03:20:12;;;;;;;14.17;3.53;;;13.50;99.90;;;;;;5034744;28;20606;-75
2023/01/05 03:37:20;;;;;;;12.77;2.70;;;13.60;99.90;;;;;;5068159;28;20573;-75
2023/01/05 03:39:46;;;;;;;11.43;2.80;;;13.60;99.90;;;;;;5067783;28;20676;-75
2023/01/05 03:42:14;;;;;;;9.27;1.90;;;13.60;99.90;;;;;;5051303;28;20571;-75
2023/01/05 03:44:44;;;;;;;11.67;2.90;;;13.60;99.90;;;;;;5050993;28;20707;-75
2023/01/05 03:47:14;;;;;;;13.73;3.00;;;13.60;99.90;;;;;;5051609;28;20684;-75
2023/01/05 03:49:41;;;;;;;11.73;2.67;;;13.60;99.90;;;;;;5053773;28;20606;-76
2023/01/05 03:52:08;;;;;;;12.10;2.67;;;13.60;99.90;;;;;;5067878;28;21147;-75
2023/01/05 03:54:33;;;;;;;8.43;2.93;;;13.60;99.90;;;;;;5067691;28;20582;-75
2023/01/05 03:56:59;;;;;;;8.80;2.80;;;13.60;99.90;;;;;;5051058;28;20199;-75
2023/01/05 03:59:26;;;;;;;11.50;3.20;;;13.60;99.90;;;;;;5067870;28;20208;-75
2023/01/05 04:01:52;;;;;;;10.50;2.93;;;13.60;99.90;;;;;;5050705;28;20578;-75
2023/01/05 04:04:17;;;;;;;12.70;2.47;;;13.60;99.90;;;;;;5067425;28;20223;-75
2023/01/05 04:06:44;;;;;;;8.20;2.67;;;13.70;99.90;;;;;;5050959;28;20168;-76
2023/01/05 04:09:11;;;;;;;8.23;2.23;;;13.70;99.90;;;;;;5053014;28;20609;-75
2023/01/05 04:11:39;;;;;;;7.90;2.10;;;13.70;99.90;;;;;;5067671;28;20629;-75
2023/01/05 04:14:06;;;;;;;12.43;2.80;;;13.70;99.90;;;;;;5050838;28;20577;-75
2023/01/05 04:16:34;;;;;;;13.17;2.50;;;13.70;99.90;;;;;;5068128;28;20647;-75
2023/01/05 04:19:06;;;;;;;14.50;3.37;;;13.70;99.90;;;;;;5054590;28;20686;-75
2023/01/05 04:21:32;;;;;;;16.03;3.10;;;13.70;99.90;;;;;;5054447;28;20657;-75
2023/01/05 04:23:58;;;;;;;13.10;3.03;;;13.70;99.90;;;;;;5070939;28;20211;-75
2023/01/05 04:26:24;;;;;;;11.33;2.83;;;13.70;99.90;;;;;;5071232;28;20208;-74
2023/01/05 04:28:50;;;;;;;10.07;2.50;;;13.70;99.90;;;;;;5053748;28;20605;-74
2023/01/05 04:31:18;;;;;;;8.30;1.77;;;13.70;99.90;;;;;;5072553;28;20574;-78
2023/01/05 04:33:44;;;;;;;9.90;2.47;;;13.80;99.90;;;;;;5053744;28;20578;-78
2023/01/05 04:36:14;;;;;;;10.90;2.13;;;13.70;99.90;;;;;;5071211;28;20574;-78
2023/01/05 04:38:40;;;;;;;10.17;2.23;;;13.70;99.90;;;;;;5054131;28;20673;-78
2023/01/05 04:41:07;;;;;;;15.63;3.67;;;13.70;99.90;;;;;;5070427;28;20643;-78
2023/01/05 04:43:33;;;;;;;14.03;2.37;;;13.70;99.90;;;;;;5070115;28;20971;-81
2023/01/05 04:46:01;;;;;;;11.67;2.77;;;13.70;99.90;;;;;;5057536;28;20579;-78
2023/01/05 04:48:30;;;;;;;12.67;2.90;;;13.70;99.90;;;;;;5054437;28;20595;-78
2023/01/05 04:50:57;;;;;;;12.13;2.67;;;13.70;99.90;;;;;;5037616;28;20621;-78
2023/01/05 04:53:29;;;;;;;15.23;3.37;;;13.70;99.90;;;;;;5069820;28;20587;-78
2023/01/05 04:55:55;;;;;;;13.37;2.60;;;13.70;99.90;;;;;;5070490;28;20590;-79
2023/01/05 04:58:22;;;;;;;10.43;3.77;;;13.70;99.90;;;;;;5036590;28;21104;-80
2023/01/05 05:00:49;;;;;;;12.07;3.73;;;13.70;99.90;;;;;;5067279;28;20728;-79
2023/01/05 05:03:15;;;;;;;7.73;2.43;;;13.70;99.90;;;;;;5056221;28;20613;-79
2023/01/05 05:05:42;;;;;;;6.37;1.87;;;13.70;99.90;;;;;;5073242;28;20923;-79
2023/01/05 05:08:09;;;;;;;12.50;2.70;;;13.70;99.90;;;;;;5090822;28;20572;-79
2023/01/05 05:10:35;;;;;;;12.80;3.50;;;13.70;99.90;;;;;;5056981;28;20604;-79
2023/01/05 05:13:04;;;;;;;11.73;2.77;;;13.60;99.90;;;;;;5091328;28;20573;-79
2023/01/05 05:15:31;;;;;;;14.93;3.80;;;13.60;99.90;;;;;;5090270;28;20175;-79
2023/01/05 05:17:57;;;;;;;9.63;2.37;;;13.50;99.90;;;;;;5073294;28;20605;-79
2023/01/05 05:20:23;;;;;;;15.23;2.07;;;13.50;99.90;;;;;;5090444;28;21125;-80
2023/01/05 05:22:49;;;;;;;15.73;2.97;;;13.40;99.90;;;;;;5092309;28;20809;-79
2023/01/05 05:25:17;;;;;;;12.15;2.55;;;13.30;99.90;;;;;;5073618;28;20574;-79
2023/01/05 05:27:47;;;;;;;16.23;2.70;;;13.30;99.90;;;;;;5090614;28;20206;-79
2023/01/05 05:30:13;;;;;;;12.15;2.40;;;13.20;99.90;;;;;;5092042;28;20680;-79
2023/01/05 05:32:39;;;;;;;15.73;3.20;;;13.20;99.90;;;;;;5090132;28;20168;-79
2023/01/05 05:35:05;;;;;;;15.63;2.60;;;13.20;99.90;;;;;;5090142;28;20601;-79
2023/01/05 05:37:31;;;;;;;9.83;1.83;;;13.10;99.90;;;;;;5090037;28;20198;-80
2023/01/05 05:39:57;;;;;;;12.27;2.80;;;13.10;99.90;;;;;;5090302;28;20692;-79
2023/01/05 05:42:23;;;;;;;9.90;1.87;;;13.10;99.90;;;;;;5089592;28;20669;-79
2023/01/05 05:44:49;;;;;;;14.83;3.60;;;13.10;99.90;;;;;;5089683;28;20235;-79
2023/01/05 05:47:15;;;;;;;11.80;2.90;;;13.10;99.90;;;;;;5089524;28;20168;-79
2023/01/05 05:49:41;;;;;;;11.80;2.80;;;13.10;99.90;;;;;;5090000;28;20632;-79
2023/01/05 05:52:07;;;;;;;11.70;2.60;;;13.10;99.90;;;;;;5089587;28;20570;-79
2023/01/05 05:54:33;;;;;;;9.83;2.50;;;13.20;99.90;;;;;;5090796;28;20706;-79
2023/01/05 05:56:59;;;;;;;14.70;3.20;;;13.20;99.90;;;;;;5089509;28;20585;-79
2023/01/05 05:59:27;;;;;;;14.07;2.70;;;13.20;99.90;;;;;;5075038;28;20203;-79
2023/01/05 06:01:53;;;;;;;16.97;3.20;;;13.20;99.90;;;;;;5093370;28;20168;-79
2023/01/05 06:04:19;;;;;;;12.23;2.72;;;13.20;99.90;;;;;;5090098;28;20203;-79
2023/01/05 06:06:44;;;;;;;11.50;2.53;;;13.20;99.90;;;;;;5089772;28;20620;-79
2023/01/05 06:09:10;;;;;;;8.90;3.07;;;13.20;99.90;;;;;;5088149;28;20269;-82
2023/01/05 06:11:44;;;;;;;15.03;3.33;;;13.30;99.90;;;;;;5074790;28;20593;-81
2023/01/05 06:14:10;;;;;;;14.43;3.40;;;13.30;99.90;;;;;;5075579;28;20184;-81
2023/01/05 06:16:35;;;;;;;14.87;2.93;;;13.30;99.90;;;;;;5090940;28;20199;-81
2023/01/05 06:19:01;;;;;;;10.13;2.27;;;13.30;99.90;;;;;;5090793;28;20524;-80
2023/01/05 06:21:27;;;;;;;15.13;2.73;;;13.30;99.90;;;;;;5090432;28;20727;-80
2023/01/05 06:23:52;;;;;;;11.03;2.80;;;13.30;99.90;;;;;;5088455;28;20624;-81
2023/01/05 06:26:21;;;;;;;9.07;2.20;;;13.30;99.90;;;;;;5089125;28;20177;-79
2023/01/05 06:28:46;;;;;;;13.60;3.03;;;13.30;99.90;;;;;;5090581;28;20225;-82
2023/01/05 06:31:12;;;;;;;12.53;2.63;;;13.30;99.90;;;;;;5088899;28;21164;-81
2023/01/05 06:33:38;;;;;;;14.90;2.60;;;13.40;99.90;;;;;;5088951;28;20175;-81
2023/01/05 06:36:04;;;;;;;10.97;3.10;;;13.30;99.90;;;;;;5090837;28;20528;-80
2023/01/05 06:38:29;;;;;;;8.40;2.13;;;13.40;99.90;;;;;;5076028;28;20678;-80
2023/01/05 06:40:56;;;;;;;15.83;4.23;;;13.40;99.90;;;;;;5088513;28;20609;-79
2023/01/05 06:43:23;;;;;;;12.17;2.77;;;13.40;99.90;;;;;;5088511;28;20199;-79
2023/01/05 06:45:49;;;;;;;12.10;2.93;;;13.40;99.90;;;;;;5088646;28;20569;-79
2023/01/05 06:48:15;;;;;;;18.63;3.23;;;13.40;99.90;;;;;;5088653;28;20581;-79
2023/01/05 06:50:41;;;;;;;13.73;4.63;;;13.40;99.90;;;;;;5088522;28;20636;-77
2023/01/05 06:53:07;;;;;;;15.63;4.53;;;13.50;99.90;;;;;;5068081;28;20582;-77
2023/01/05 06:55:33;;;;;;;6.97;2.17;;;13.40;99.90;;;;;;5090463;28;20282;-77
2023/01/05 06:57:58;;;;;;;14.60;2.97;;;13.40;99.90;;;;;;5091288;28;20262;-78
2023/01/05 07:00:24;;;;;;;10.57;2.07;;;13.50;99.90;;;;;;5090974;28;20689;-78
2023/01/05 07:02:50;;;;;;;12.53;3.10;;;13.50;99.90;;;;;;5089317;28;20175;-78
2023/01/05 07:05:16;;;;;;;12.27;2.40;;;13.50;99.90;;;;;;5089492;28;20663;-78
2023/01/05 07:07:42;;;;;;;12.43;3.50;;;13.50;99.90;;;;;;5072772;28;20168;-78
2023/01/05 07:10:08;;;;;;;11.67;2.60;;;13.50;99.90;;;;;;5089713;28;20655;-77
2023/01/05 07:12:34;;;;;;;16.50;3.20;;;13.50;99.90;;;;;;5089304;28;20589;-78
2023/01/05 07:15:00;;;;;;;12.83;4.07;;;13.50;99.90;;;;;;5095080;28;20561;-79
2023/01/05 07:17:26;;;;;;;17.03;3.47;;;13.50;99.90;;;;;;5091190;28;20602;-78
2023/01/05 07:19:53;;;;;;;16.13;3.27;;;13.50;99.90;;;;;;5073161;28;21233;-78
2023/01/05 07:22:19;;;;;;;16.20;3.20;;;13.50;99.90;;;;;;5089992;28;20570;-77
2023/01/05 07:24:44;;;;;;;16.60;3.60;;;13.50;99.90;;;;;;5089175;28;21184;-78
2023/01/05 07:27:10;;;;;;;17.10;4.80;;;13.50;99.90;;;;;;5090049;28;20163;-78
2023/01/05 07:29:36;;;;;;;13.57;2.90;;;13.50;99.90;;;;;;5089414;28;20195;-78
2023/01/05 07:32:02;;;;;;;19.77;3.47;;;13.50;99.90;;;;;;5091015;28;20172;-77
2023/01/05 07:34:28;;;;;;;13.63;2.60;;;13.50;99.90;;;;;;5089031;28;21148;-77
2023/01/05 07:36:55;;;;;;;16.07;3.63;;;13.50;99.90;;;;;;5089920;28;20574;-77
2023/01/05 07:39:20;;;;;;;17.97;3.40;;;13.50;99.90;;;;;;5089818;28;20963;-77
2023/01/05 07:41:46;;;;;;;12.37;3.33;;;13.50;99.90;;;;;;5072584;28;20282;-78
2023/01/05 07:44:12;;;;;;;14.10;2.70;;;13.50;99.90;;;;;;5090820;28;20195;-77
2023/01/05 07:46:38;;;;;;;16.67;3.63;;;13.50;99.90;;;;;;5089620;28;20180;-77
2023/01/05 07:49:03;;;;;;;9.70;2.90;;;13.60;99.90;;;;;;5091262;28;20218;-75
2023/01/05 07:51:29;;;;;;;8.20;3.00;;;13.60;99.90;;;;;;5093662;28;20718;-75
2023/01/05 07:53:55;;;;;;;12.40;3.57;;;13.60;99.90;;;;;;5095461;28;20172;-74
2023/01/05 07:56:21;;;;;;;8.57;2.53;;;13.50;99.90;;;;;;5056530;28;20211;-74
2023/01/05 07:58:47;;;;;;;11.70;3.23;;;13.50;99.90;;;;;;5076234;28;20644;-74
2023/01/05 08:01:14;;;;;;;11.87;2.47;;;13.50;99.90;;;;;;5093117;28;20211;-74
2023/01/05 08:03:40;;;;;;;13.93;2.93;;;13.50;99.90;;;;;;5094034;28;20955;-75
2023/01/05 08:06:08;;;;;;;14.40;3.13;;;13.50;99.90;;;;;;5094601;28;20661;-74
2023/01/05 08:08:35;;;;;;;17.53;3.40;;;13.50;99.90;;;;;;5094688;28;20679;-74
2023/01/05 08:11:04;;;;;;;14.30;3.67;;;13.50;99.90;;;;;;5094435;28;20700;-75
2023/01/05 08:16:14;;;;;;;14.63;2.70;;;13.50;99.90;;;;;;5092987;28;20576;-75
2023/01/05 08:18:40;;;;;;;8.23;2.00;;;13.50;99.90;;;;;;5092449;28;20593;-75
2023/01/05 08:21:07;;;;;;;13.53;2.90;;;13.50;99.90;;;;;;5093832;28;20544;-75
2023/01/05 08:23:33;;;;;;;17.17;3.20;;;13.50;99.90;;;;;;5075728;28;20271;-75
2023/01/05 08:26:10;;;;;;;15.50;4.10;;;13.60;99.90;;;;;;5075572;28;20580;-75
2023/01/05 08:28:37;;;;;;;14.57;3.10;;;13.60;99.90;;;;;;5095350;28;20684;-74
2023/01/05 08:31:05;;;;;;;14.27;2.88;;;13.60;99.90;;;;;;5092766;28;20597;-74
2023/01/05 08:33:31;;;;;;;15.50;4.33;;;13.60;99.90;;;;;;5092402;28;20196;-74
2023/01/05 08:35:57;;;;;;;10.53;3.00;;;13.50;99.90;;;;;;5091426;28;20600;-74
2023/01/05 08:38:23;;;;;;;15.03;3.87;;;13.50;99.90;;;;;;5093078;28;20586;-74
2023/01/05 08:40:49;;;;;;;12.53;3.83;;;13.60;99.90;;;;;;5072722;28;20286;-75
2023/01/05 08:43:14;;;;;;;14.73;5.20;;;13.60;99.90;;;;;;5075007;28;20728;-75
2023/01/05 08:45:41;;;;;;;13.10;3.63;;;13.60;99.90;;;;;;5092720;28;20593;-75
2023/01/05 08:48:08;;;;;;;15.63;3.83;;;13.60;99.90;;;;;;5091867;28;20538;-74
2023/01/05 08:50:35;;;;;;;9.50;3.00;;;13.70;99.90;;;;;;5091849;28;20589;-74
2023/01/05 08:53:01;;;;;;;16.70;4.03;;;13.70;99.90;;;;;;5092994;28;20641;-73
2023/01/05 08:55:27;;;;;;;11.43;3.17;;;13.70;99.90;;;;;;5088652;28;21200;-74
2023/01/05 08:57:55;;;;;;;15.37;3.30;;;13.80;99.90;;;;;;5073314;28;20671;-74
2023/01/05 09:00:21;;;;;;;14.80;4.00;;;13.80;99.90;;;;;;5056509;28;20215;-74
2023/01/05 09:02:47;;;;;;;19.37;3.23;;;13.80;99.90;;;;;;5090817;28;20596;-75
2023/01/05 09:05:13;;;;;;;18.47;3.60;;;13.80;99.90;;;;;;5092712;28;20654;-75
2023/01/05 09:07:39;;;;;;;17.30;3.80;;;13.80;99.90;;;;;;5090709;28;21188;-75
2023/01/05 09:10:07;;;;;;;23.40;5.20;;;13.90;99.90;;;;;;5090753;28;20624;-76
2023/01/05 09:12:37;;;;;;;17.83;3.80;;;13.90;99.90;;;;;;5091647;28;20179;-75
2023/01/05 09:15:04;;;;;;;25.03;3.93;;;13.90;99.90;;;;;;5092192;28;20613;-76
2023/01/05 09:17:31;;;;;;;13.90;3.70;;;14.00;99.90;;;;;;5093321;28;20659;-75
2023/01/05 09:19:57;;;;;;;17.73;3.70;;;14.00;99.90;;;;;;5072942;28;20610;-76
2023/01/05 09:22:22;;;;;;;17.57;3.43;;;14.10;99.90;;;;;;5089686;28;20577;-76
2023/01/05 09:24:48;;;;;;;15.00;4.17;;;14.10;99.90;;;;;;5071513;28;20204;-76
2023/01/05 09:27:14;;;;;;;12.87;3.07;;;14.20;99.90;;;;;;5088220;28;20176;-76
2023/01/05 09:29:40;;;;;;;13.43;4.00;;;14.30;99.90;;;;;;5073784;28;20192;-74
2023/01/05 09:32:06;;;;;;;16.60;4.20;;;14.40;99.90;;;;;;5070959;28;20216;-74
2023/01/05 09:34:32;;;;;;;10.73;2.93;;;14.50;99.90;;;;;;5070892;28;21122;-73
2023/01/05 09:36:58;;;;;;;13.33;3.53;;;14.60;99.90;;;;;;5087625;28;20648;-75
2023/01/05 09:39:24;;;;;;;17.77;4.23;;;14.60;99.90;;;;;;5102570;28;20625;-75
2023/01/05 09:41:54;;;;;;;18.40;5.37;;;14.70;99.90;;;;;;5091185;28;20906;-76
2023/01/05 09:44:37;;;;;;;20.20;6.73;;;14.70;99.90;;;;;;5094883;28;20289;-75
2023/01/05 09:47:09;;;;;;;16.60;4.90;;;14.80;99.90;;;;;;5092431;28;20932;-75
2023/01/05 09:49:35;;;;;;;16.50;4.03;;;14.80;99.90;;;;;;5085888;28;20691;-75
2023/01/05 09:52:08;;;;;;;17.13;3.90;;;14.80;99.90;;;;;;5091635;28;20589;-76
2023/01/05 09:54:37;;;;;;;19.37;3.70;;;14.80;99.90;;;;;;5097757;28;20845;-75
2023/01/05 09:57:05;;;;;;;20.13;4.00;;;14.90;99.90;;;;;;5091045;28;20619;-75
2023/01/05 09:59:51;;;;;;;17.53;3.53;;;14.90;99.90;;;;;;5073957;28;20650;-74
2023/01/05 10:02:17;;;;;;;17.67;4.80;;;14.80;99.90;;;;;;5090885;28;20574;-74
2023/01/05 10:04:46;;;;;;;10.50;3.00;;;14.90;99.90;;;;;;5090223;28;20645;-73
2023/01/05 10:07:33;;;;;;;13.60;3.30;;;14.90;99.90;;;;;;5091943;28;20199;-74
2023/01/05 10:10:06;;;;;;;14.00;3.80;;;15.00;99.90;;;;;;5073860;28;20618;-74
2023/01/05 10:13:02;;;;;;;20.60;3.80;;;15.00;99.90;;;;;;5089570;28;20582;-74
2023/01/05 10:15:47;;;;;;;17.00;3.27;;;14.90;99.90;;;;;;5090161;28;20868;-74
2023/01/05 10:18:23;;;;;;;18.90;4.07;;;15.00;99.90;;;;;;5089871;28;20580;-74
2023/01/05 10:21:19;;;;;;;14.73;5.40;;;15.00;99.90;;;;;;5097515;28;20997;-74
2023/01/05 10:24:04;;;;;;;17.00;3.73;;;15.00;99.90;;;;;;5091588;28;20617;-74
2023/01/05 10:26:36;;;;;;;14.07;4.43;;;14.90;99.90;;;;;;5090322;28;20925;-74
2023/01/05 10:29:12;;;;;;;18.17;4.80;;;14.90;99.90;;;;;;5089670;28;20574;-74
2023/01/05 10:31:51;;;;;;;16.80;4.43;;;14.90;99.90;;;;;;5090851;28;20935;-77
2023/01/05 10:34:31;;;;;;;22.67;4.57;;;14.90;99.90;;;;;;5098040;28;20572;-78
2023/01/05 10:37:22;;;;;;;19.47;6.57;;;14.90;99.90;;;;;;5096077;28;20574;-77
2023/01/05 10:40:30;;;;;;;11.40;4.10;;;15.00;99.90;;;;;;5090848;28;20606;-77
2023/01/05 10:43:18;;;;;;;13.80;4.63;;;15.00;99.90;;;;;;5068871;28;21144;-77
2023/01/05 10:45:45;;;;;;;13.77;5.00;;;15.00;99.90;;;;;;5091993;28;20632;-77
2023/01/05 10:48:14;;;;;;;13.67;4.23;;;15.10;99.90;;;;;;5073274;28;21121;-78
2023/01/05 10:50:42;;;;;;;16.00;4.20;;;15.10;99.90;;;;;;5090632;28;20882;-77
2023/01/05 10:53:11;;;;;;;15.07;4.13;;;15.10;99.90;;;;;;5088819;28;20988;-77
2023/01/05 10:55:55;;;;;;;14.20;5.03;;;15.10;99.90;;;;;;5089226;28;20620;-79
2023/01/05 10:58:27;;;;;;;18.30;4.33;;;15.10;99.90;;;;;;5093904;28;21016;-78
2023/01/05 11:01:17;;;;;;;16.30;4.90;;;15.20;99.90;;;;;;5091760;28;20617;-78
2023/01/05 11:03:46;;;;;;;11.67;3.93;;;15.20;99.90;;;;;;5089685;28;20668;-78
2023/01/05 11:06:22;;;;;;;13.63;3.63;;;15.30;99.90;;;;;;5090873;28;20581;-78
2023/01/05 11:08:48;;;;;;;15.63;4.60;;;15.30;99.90;;;;;;5056190;28;20967;-77
2023/01/05 11:11:25;;;;;;;12.80;4.50;;;15.30;99.90;;;;;;5088260;28;20597;-77
2023/01/05 11:13:56;;;;;;;16.43;3.53;;;15.40;99.90;;;;;;5090473;28;20577;-77
2023/01/05 11:16:29;;;;;;;16.83;4.07;;;15.40;99.90;;;;;;5089769;28;20680;-77
2023/01/05 11:19:00;;;;;;;11.90;3.20;;;15.50;99.90;;;;;;5089337;28;20937;-77
2023/01/05 11:21:43;;;;;;;25.60;4.93;;;15.50;99.90;;;;;;5069084;28;20598;-78
2023/01/05 11:24:31;;;;;;;13.93;3.60;;;15.50;99.90;;;;;;5088725;28;20630;-78
2023/01/05 11:27:20;;;;;;;12.80;3.93;;;15.50;99.90;;;;;;5071641;28;20719;-78
2023/01/05 11:30:11;;;;;;;17.10;4.63;;;15.50;99.90;;;;;;5088886;28;20675;-77
2023/01/05 11:32:40;;;;;;;20.13;4.37;;;15.50;99.90;;;;;;5089198;28;20661;-77
2023/01/05 11:35:36;;;;;;;9.83;3.33;;;15.50;99.90;;;;;;5092956;28;20677;-78
2023/01/05 11:38:03;;;;;;;14.57;4.23;;;15.50;99.90;;;;;;5090649;28;20899;-78
2023/01/05 11:40:32;;;;;;;14.53;4.90;;;15.50;99.90;;;;;;5071916;28;20621;-78
2023/01/05 11:42:59;;;;;;;14.13;6.07;;;15.40;99.90;;;;;;5090043;28;20654;-77
2023/01/05 11:45:36;;;;;;;14.77;5.33;;;15.40;99.90;;;;;;5065608;28;20597;-77
2023/01/05 11:48:08;;;;;;;14.47;4.47;;;15.40;99.90;;;;;;5089295;28;20605;-78
2023/01/05 11:50:55;;;;;;;15.50;6.80;;;15.40;99.90;;;;;;5090105;28;20979;-77
2023/01/05 11:53:33;;;;;;;16.80;6.30;;;15.50;99.90;;;;;;5072293;28;20585;-77
2023/01/05 11:56:01;;;;;;;21.17;7.60;;;15.40;99.90;;;;;;5085964;28;20590;-77
2023/01/05 11:58:47;;;;;;;16.60;8.00;;;15.40;99.90;;;;;;5049651;28;20939;-77
2023/01/05 12:01:31;;;;;;;16.30;5.80;;;15.40;99.90;;;;;;5088927;28;20629;-78
2023/01/05 12:04:16;;;;;;;21.37;8.60;;;15.40;99.90;;;;;;5071283;28;20629;-76
2023/01/05 12:07:20;;;;;;;15.53;6.07;;;15.50;99.90;;;;;;5090595;28;20564;-77
2023/01/05 12:10:11;;;;;;;17.70;5.00;;;15.60;99.90;;;;;;5072371;28;20715;-76
2023/01/05 12:12:58;;;;;;;19.93;5.40;;;15.60;99.90;;;;;;5031541;28;20582;-77
2023/01/05 12:15:36;;;;;;;19.70;7.87;;;15.60;99.90;;;;;;5090187;28;20574;-78
2023/01/05 12:18:17;;;;;;;14.53;5.67;;;15.60;99.90;;;;;;5089016;28;20562;-78
2023/01/05 12:20:43;;;;;;;21.73;6.90;;;15.60;99.90;;;;;;5090032;28;20588;-79
2023/01/05 12:23:26;;;;;;;14.50;4.30;;;15.60;99.90;;;;;;5088650;28;21184;-79
2023/01/05 12:26:03;;;;;;;15.53;5.13;;;15.50;99.90;;;;;;5086459;28;20633;-79
2023/01/05 12:28:45;;;;;;;13.37;3.47;;;15.60;99.90;;;;;;5089527;28;20588;-79
2023/01/05 12:31:16;;;;;;;15.03;4.20;;;15.50;99.90;;;;;;5088023;28;20943;-78
2023/01/05 12:34:11;;;;;;;12.07;4.33;;;15.50;99.90;;;;;;5088736;28;20594;-77
2023/01/05 12:37:21;;;;;;;10.90;3.70;;;15.50;99.90;;;;;;5050268;28;20585;-77
2023/01/05 12:40:11;;;;;;;16.97;5.40;;;15.50;99.90;;;;;;5069979;28;20609;-77
2023/01/05 12:42:46;;;;;;;16.60;5.53;;;15.60;99.90;;;;;;5053086;28;20575;-78
2023/01/05 12:45:30;;;;;;;14.77;4.37;;;15.60;99.90;;;;;;5070843;28;20581;-78
2023/01/05 12:48:08;;;;;;;12.13;3.57;;;15.60;99.90;;;;;;5079606;28;20593;-78
2023/01/05 12:50:43;;;;;;;16.37;3.60;;;15.70;99.90;;;;;;5094702;28;20692;-79
2023/01/05 12:53:17;;;;;;;9.77;4.00;;;15.60;99.90;;;;;;5093283;28;20604;-77
2023/01/05 12:55:50;;;;;;;11.50;2.80;;;15.60;99.90;;;;;;5087303;28;21618;-78
2023/01/05 12:58:35;;;;;;;14.53;3.67;;;15.60;99.90;;;;;;5085329;28;20597;-78
2023/01/05 13:01:04;;;;;;;11.00;3.40;;;15.50;99.90;;;;;;5090427;28;20674;-78
2023/01/05 13:03:38;;;;;;;12.07;3.10;;;15.40;99.90;;;;;;5080280;28;20621;-77
2023/01/05 13:06:08;;;;;;;12.00;3.03;;;15.40;99.90;;;;;;5091642;28;20634;-78
2023/01/05 13:08:51;;;;;;;12.53;3.57;;;15.30;99.90;;;;;;5093799;28;20582;-78
2023/01/05 13:11:37;;;;;;;14.13;3.93;;;15.30;99.90;;;;;;5092505;28;20623;-78
2023/01/05 13:14:10;;;;;;;11.13;3.30;;;15.30;99.90;;;;;;5086641;28;21019;-78
2023/01/05 13:16:38;;;;;;;16.90;5.70;;;15.30;99.90;;;;;;5092478;28;21021;-79
2023/01/05 13:19:13;;;;;;;13.60;4.07;;;15.30;99.90;;;;;;5090757;28;20585;-78
2023/01/05 13:21:42;;;;;;;13.63;3.40;;;15.30;99.90;;;;;;5092595;28;20584;-78
2023/01/05 13:24:16;;;;;;;13.20;5.50;;;15.30;99.90;;;;;;5091261;28;20629;-78
2023/01/05 13:26:42;;;;;;;10.50;3.43;;;15.40;99.90;;;;;;5094438;28;20574;-77
2023/01/05 13:29:30;;;;;;;12.47;4.40;;;15.50;99.90;;;;;;5093674;28;20593;-78